sensor_id;sensor_type;location;lat;lon;timestamp;temperature;humidity
18454;DHT22;9356;52.202;20.950;2023-10-19T00:01:16;5.50;99.90
18454;DHT22;9356;52.202;20.950;2023-10-19T00:02:23;5.30;99.90
18454;DHT22;9356;52.202;20.950;2023-10-19T00:03:28;5.30;99.90
18454;DHT22;9356;52.202;20.950;2023-10-19T00:04:34;5.40;99.90
18454;DHT22;9356;52.202;20.950;2023-10-19T00:05:40;5.40;99.90
18454;DHT22;9356;52.202;20.950;2023-10-19T00:06:48;5.30;99.90
18454;DHT22;9356;52.202;20.950;2023-10-19T00:07:52;5.30;99.90
18454;DHT22;9356;52.202;20.950;2023-10-19T00:09:00;5.30;99.90
18454;DHT22;9356;52.202;20.950;2023-10-19T00:10:09;5.30;99.90
18454;DHT22;9356;52.202;20.950;2023-10-19T00:11:20;5.30;99.90
18454;DHT22;9356;52.202;20.950;2023-10-19T00:12:32;5.30;99.90
18454;DHT22;9356;52.202;20.950;2023-10-19T00:13:35;5.30;99.90
18454;DHT22;9356;52.202;20.950;2023-10-19T00:14:48;5.30;99.90
18454;DHT22;9356;52.202;20.950;2023-10-19T00:15:52;5.30;99.90
18454;DHT22;9356;52.202;20.950;2023-10-19T00:16:56;5.30;99.90
18454;DHT22;9356;52.202;20.950;2023-10-19T00:18:08;5.30;99.90
18454;DHT22;9356;52.202;20.950;2023-10-19T00:19:26;5.30;99.90
18454;DHT22;9356;52.202;20.950;2023-10-19T00:20:32;5.30;99.90
18454;DHT22;9356;52.202;20.950;2023-10-19T00:21:57;5.30;99.90
18454;DHT22;9356;52.202;20.950;2023-10-19T00:23:15;5.30;99.90
18454;DHT22;9356;52.202;20.950;2023-10-19T00:24:21;5.20;99.90
18454;DHT22;9356;52.202;20.950;2023-10-19T00:25:30;7.50;99.90
18454;DHT22;9356;52.202;20.950;2023-10-19T00:26:36;5.20;99.90
18454;DHT22;9356;52.202;20.950;2023-10-19T00:27:40;5.30;99.90
18454;DHT22;9356;52.202;20.950;2023-10-19T00:28:48;5.30;99.90
18454;DHT22;9356;52.202;20.950;2023-10-19T00:29:56;5.20;99.90
18454;DHT22;9356;52.202;20.950;2023-10-19T00:31:08;5.20;99.90
18454;DHT22;9356;52.202;20.950;2023-10-19T00:32:15;5.20;99.90
18454;DHT22;9356;52.202;20.950;2023-10-19T00:33:20;5.20;99.90
18454;DHT22;9356;52.202;20.950;2023-10-19T00:34:24;2.90;99.90
18454;DHT22;9356;52.202;20.950;2023-10-19T00:35:31;5.10;99.90
18454;DHT22;9356;52.202;20.950;2023-10-19T00:36:48;5.10;99.90
18454;DHT22;9356;52.202;20.950;2023-10-19T00:37:55;5.10;99.90
18454;DHT22;9356;52.202;20.950;2023-10-19T00:39:22;5.10;99.90
18454;DHT22;9356;52.202;20.950;2023-10-19T00:40:27;5.10;99.90
18454;DHT22;9356;52.202;20.950;2023-10-19T00:41:40;5.10;99.90
18454;DHT22;9356;52.202;20.950;2023-10-19T00:42:48;5.00;99.90
18454;DHT22;9356;52.202;20.950;2023-10-19T00:43:58;5.00;99.90
18454;DHT22;9356;52.202;20.950;2023-10-19T00:45:12;5.00;99.90
18454;DHT22;9356;52.202;20.950;2023-10-19T00:46:20;6.40;99.90
18454;DHT22;9356;52.202;20.950;2023-10-19T00:47:31;5.00;99.90
18454;DHT22;9356;52.202;20.950;2023-10-19T00:48:48;5.20;99.90
18454;DHT22;9356;52.202;20.950;2023-10-19T00:49:56;5.00;99.90
18454;DHT22;9356;52.202;20.950;2023-10-19T00:51:07;5.00;99.90
18454;DHT22;9356;52.202;20.950;2023-10-19T00:52:20;5.00;99.90
18454;DHT22;9356;52.202;20.950;2023-10-19T00:53:28;5.00;99.90
18454;DHT22;9356;52.202;20.950;2023-10-19T00:54:34;5.00;99.90
18454;DHT22;9356;52.202;20.950;2023-10-19T00:55:46;5.10;99.90
18454;DHT22;9356;52.202;20.950;2023-10-19T00:56:50;5.00;99.90
18454;DHT22;9356;52.202;20.950;2023-10-19T00:58:00;5.00;99.90
18454;DHT22;9356;52.202;20.950;2023-10-19T00:59:20;5.00;99.90
18454;DHT22;9356;52.202;20.950;2023-10-19T01:00:36;5.10;99.90
18454;DHT22;9356;52.202;20.950;2023-10-19T01:01:51;4.90;99.90
18454;DHT22;9356;52.202;20.950;2023-10-19T01:03:00;5.00;99.90
18454;DHT22;9356;52.202;20.950;2023-10-19T01:04:08;5.00;99.90
18454;DHT22;9356;52.202;20.950;2023-10-19T01:05:24;5.00;99.90
18454;DHT22;9356;52.202;20.950;2023-10-19T01:06:39;4.90;99.90
18454;DHT22;9356;52.202;20.950;2023-10-19T01:07:47;5.00;99.90
18454;DHT22;9356;52.202;20.950;2023-10-19T01:08:56;4.90;99.90
18454;DHT22;9356;52.202;20.950;2023-10-19T01:10:02;4.90;99.90
18454;DHT22;9356;52.202;20.950;2023-10-19T01:11:14;5.00;99.90
18454;DHT22;9356;52.202;20.950;2023-10-19T01:12:30;5.00;99.90
18454;DHT22;9356;52.202;20.950;2023-10-19T01:13:42;5.00;99.90
18454;DHT22;9356;52.202;20.950;2023-10-19T01:15:05;5.00;99.90
18454;DHT22;9356;52.202;20.950;2023-10-19T01:16:18;5.00;99.90
18454;DHT22;9356;52.202;20.950;2023-10-19T01:17:27;5.00;99.90
18454;DHT22;9356;52.202;20.950;2023-10-19T01:18:36;5.00;99.90
18454;DHT22;9356;52.202;20.950;2023-10-19T01:19:48;5.10;99.90
18454;DHT22;9356;52.202;20.950;2023-10-19T01:20:51;5.10;99.90
18454;DHT22;9356;52.202;20.950;2023-10-19T01:22:00;5.10;99.90
18454;DHT22;9356;52.202;20.950;2023-10-19T01:23:10;5.30;99.90
18454;DHT22;9356;52.202;20.950;2023-10-19T01:24:24;5.10;99.90
18454;DHT22;9356;52.202;20.950;2023-10-19T01:25:46;5.10;99.90
18454;DHT22;9356;52.202;20.950;2023-10-19T01:26:56;5.10;99.90
18454;DHT22;9356;52.202;20.950;2023-10-19T01:28:06;6.50;99.90
18454;DHT22;9356;52.202;20.950;2023-10-19T01:29:12;5.10;99.90
18454;DHT22;9356;52.202;20.950;2023-10-19T01:30:21;5.10;99.90
18454;DHT22;9356;52.202;20.950;2023-10-19T01:31:26;5.20;99.90
18454;DHT22;9356;52.202;20.950;2023-10-19T01:32:44;5.10;99.90
18454;DHT22;9356;52.202;20.950;2023-10-19T01:33:50;5.10;99.90
18454;DHT22;9356;52.202;20.950;2023-10-19T01:34:56;5.10;99.90
18454;DHT22;9356;52.202;20.950;2023-10-19T01:36:04;5.10;99.90
18454;DHT22;9356;52.202;20.950;2023-10-19T01:37:14;2.90;99.90
18454;DHT22;9356;52.202;20.950;2023-10-19T01:38:22;5.40;99.90
18454;DHT22;9356;52.202;20.950;2023-10-19T01:39:28;5.10;99.90
18454;DHT22;9356;52.202;20.950;2023-10-19T01:40:40;5.10;99.90
18454;DHT22;9356;52.202;20.950;2023-10-19T01:41:48;5.10;99.90
18454;DHT22;9356;52.202;20.950;2023-10-19T01:43:00;5.20;99.90
18454;DHT22;9356;52.202;20.950;2023-10-19T01:44:08;4.60;99.90
18454;DHT22;9356;52.202;20.950;2023-10-19T01:45:16;5.20;99.90
18454;DHT22;9356;52.202;20.950;2023-10-19T01:46:22;3.40;99.90
18454;DHT22;9356;52.202;20.950;2023-10-19T01:47:34;5.50;99.90
18454;DHT22;9356;52.202;20.950;2023-10-19T01:48:42;5.20;99.90
18454;DHT22;9356;52.202;20.950;2023-10-19T01:49:57;5.00;99.90
18454;DHT22;9356;52.202;20.950;2023-10-19T01:51:18;5.20;99.90
18454;DHT22;9356;52.202;20.950;2023-10-19T01:52:23;5.20;99.90
18454;DHT22;9356;52.202;20.950;2023-10-19T01:53:31;5.20;99.90
18454;DHT22;9356;52.202;20.950;2023-10-19T01:54:37;5.20;99.90
18454;DHT22;9356;52.202;20.950;2023-10-19T01:55:43;5.30;99.90
18454;DHT22;9356;52.202;20.950;2023-10-19T01:56:55;5.20;99.90
18454;DHT22;9356;52.202;20.950;2023-10-19T01:58:04;5.30;99.90
18454;DHT22;9356;52.202;20.950;2023-10-19T01:59:12;5.20;99.90
18454;DHT22;9356;52.202;20.950;2023-10-19T02:00:22;5.30;99.90
18454;DHT22;9356;52.202;20.950;2023-10-19T02:01:43;4.50;99.90
18454;DHT22;9356;52.202;20.950;2023-10-19T02:02:48;5.30;99.90
18454;DHT22;9356;52.202;20.950;2023-10-19T02:04:00;5.40;99.90
18454;DHT22;9356;52.202;20.950;2023-10-19T02:05:12;5.30;99.90
18454;DHT22;9356;52.202;20.950;2023-10-19T02:06:20;5.30;99.90
18454;DHT22;9356;52.202;20.950;2023-10-19T02:07:24;5.30;99.90
18454;DHT22;9356;52.202;20.950;2023-10-19T02:08:36;5.20;99.90
18454;DHT22;9356;52.202;20.950;2023-10-19T02:09:44;5.20;99.90
18454;DHT22;9356;52.202;20.950;2023-10-19T02:10:50;5.30;99.90
18454;DHT22;9356;52.202;20.950;2023-10-19T02:12:00;5.20;99.90
18454;DHT22;9356;52.202;20.950;2023-10-19T02:13:08;5.20;99.90
18454;DHT22;9356;52.202;20.950;2023-10-19T02:14:20;5.20;99.90
18454;DHT22;9356;52.202;20.950;2023-10-19T02:15:24;5.20;99.90
18454;DHT22;9356;52.202;20.950;2023-10-19T02:16:27;5.40;99.90
18454;DHT22;9356;52.202;20.950;2023-10-19T02:17:41;5.10;99.90
18454;DHT22;9356;52.202;20.950;2023-10-19T02:18:45;5.10;99.90
18454;DHT22;9356;52.202;20.950;2023-10-19T02:19:50;5.10;99.90
18454;DHT22;9356;52.202;20.950;2023-10-19T02:21:02;5.10;99.90
18454;DHT22;9356;52.202;20.950;2023-10-19T02:22:08;5.10;99.90
18454;DHT22;9356;52.202;20.950;2023-10-19T02:23:16;5.00;99.90
18454;DHT22;9356;52.202;20.950;2023-10-19T02:24:26;5.00;99.90
18454;DHT22;9356;52.202;20.950;2023-10-19T02:25:32;5.10;99.90
18454;DHT22;9356;52.202;20.950;2023-10-19T02:26:45;5.10;99.90
18454;DHT22;9356;52.202;20.950;2023-10-19T02:27:52;5.10;99.90
18454;DHT22;9356;52.202;20.950;2023-10-19T02:29:00;5.10;99.90
18454;DHT22;9356;52.202;20.950;2023-10-19T02:30:12;5.10;99.90
18454;DHT22;9356;52.202;20.950;2023-10-19T02:31:20;5.20;99.90
18454;DHT22;9356;52.202;20.950;2023-10-19T02:32:28;5.10;99.90
18454;DHT22;9356;52.202;20.950;2023-10-19T02:33:36;5.10;99.90
18454;DHT22;9356;52.202;20.950;2023-10-19T02:34:52;4.20;99.90
18454;DHT22;9356;52.202;20.950;2023-10-19T02:35:58;2.80;99.90
18454;DHT22;9356;52.202;20.950;2023-10-19T02:37:01;5.10;99.90
18454;DHT22;9356;52.202;20.950;2023-10-19T02:38:08;5.10;99.90
18454;DHT22;9356;52.202;20.950;2023-10-19T02:39:12;5.20;99.90
18454;DHT22;9356;52.202;20.950;2023-10-19T02:40:22;5.20;99.90
18454;DHT22;9356;52.202;20.950;2023-10-19T02:41:36;5.10;99.90
18454;DHT22;9356;52.202;20.950;2023-10-19T02:42:39;5.10;99.90
18454;DHT22;9356;52.202;20.950;2023-10-19T02:43:46;5.20;99.90
18454;DHT22;9356;52.202;20.950;2023-10-19T02:44:54;5.50;99.90
18454;DHT22;9356;52.202;20.950;2023-10-19T02:45:56;5.40;99.90
18454;DHT22;9356;52.202;20.950;2023-10-19T02:47:03;5.30;99.90
18454;DHT22;9356;52.202;20.950;2023-10-19T02:48:14;5.20;99.90
18454;DHT22;9356;52.202;20.950;2023-10-19T02:49:25;5.30;99.90
18454;DHT22;9356;52.202;20.950;2023-10-19T02:50:36;5.10;99.90
18454;DHT22;9356;52.202;20.950;2023-10-19T02:51:48;5.30;99.90
18454;DHT22;9356;52.202;20.950;2023-10-19T02:53:00;5.30;99.90
18454;DHT22;9356;52.202;20.950;2023-10-19T02:54:08;5.30;99.90
18454;DHT22;9356;52.202;20.950;2023-10-19T02:55:16;5.30;99.90
18454;DHT22;9356;52.202;20.950;2023-10-19T02:56:24;5.30;99.90
18454;DHT22;9356;52.202;20.950;2023-10-19T02:57:34;5.30;99.90
18454;DHT22;9356;52.202;20.950;2023-10-19T02:58:40;5.30;99.90
18454;DHT22;9356;52.202;20.950;2023-10-19T02:59:44;5.30;99.90
18454;DHT22;9356;52.202;20.950;2023-10-19T03:00:56;5.30;99.90
18454;DHT22;9356;52.202;20.950;2023-10-19T03:02:06;5.30;99.90
18454;DHT22;9356;52.202;20.950;2023-10-19T03:03:21;6.60;99.90
18454;DHT22;9356;52.202;20.950;2023-10-19T03:04:28;5.20;99.90
18454;DHT22;9356;52.202;20.950;2023-10-19T03:05:36;5.30;99.90
18454;DHT22;9356;52.202;20.950;2023-10-19T03:06:52;6.60;99.90
18454;DHT22;9356;52.202;20.950;2023-10-19T03:07:59;5.20;99.90
18454;DHT22;9356;52.202;20.950;2023-10-19T03:09:05;5.20;99.90
18454;DHT22;9356;52.202;20.950;2023-10-19T03:10:50;5.20;99.90
18454;DHT22;9356;52.202;20.950;2023-10-19T03:12:11;5.20;99.90
18454;DHT22;9356;52.202;20.950;2023-10-19T03:13:16;5.20;99.90
18454;DHT22;9356;52.202;20.950;2023-10-19T03:14:19;5.20;99.90
18454;DHT22;9356;52.202;20.950;2023-10-19T03:15:28;5.20;99.90
18454;DHT22;9356;52.202;20.950;2023-10-19T03:16:36;5.20;99.90
18454;DHT22;9356;52.202;20.950;2023-10-19T03:17:48;5.20;99.90
18454;DHT22;9356;52.202;20.950;2023-10-19T03:19:00;5.20;99.90
18454;DHT22;9356;52.202;20.950;2023-10-19T03:20:10;5.30;99.90
18454;DHT22;9356;52.202;20.950;2023-10-19T03:21:16;5.20;99.90
18454;DHT22;9356;52.202;20.950;2023-10-19T03:22:29;6.00;99.90
18454;DHT22;9356;52.202;20.950;2023-10-19T03:23:37;5.20;99.90
18454;DHT22;9356;52.202;20.950;2023-10-19T03:24:43;5.20;99.90
18454;DHT22;9356;52.202;20.950;2023-10-19T03:25:56;5.20;99.90
18454;DHT22;9356;52.202;20.950;2023-10-19T03:27:19;4.10;99.90
18454;DHT22;9356;52.202;20.950;2023-10-19T03:28:26;5.10;99.90
18454;DHT22;9356;52.202;20.950;2023-10-19T03:29:33;5.20;99.90
18454;DHT22;9356;52.202;20.950;2023-10-19T03:32:37;5.20;99.90
18454;DHT22;9356;52.202;20.950;2023-10-19T03:33:45;5.10;99.90
18454;DHT22;9356;52.202;20.950;2023-10-19T03:35:09;5.10;99.90
18454;DHT22;9356;52.202;20.950;2023-10-19T03:36:17;7.40;99.90
18454;DHT22;9356;52.202;20.950;2023-10-19T03:37:20;5.10;99.90
18454;DHT22;9356;52.202;20.950;2023-10-19T03:38:30;5.10;99.90
18454;DHT22;9356;52.202;20.950;2023-10-19T03:39:39;5.00;99.90
18454;DHT22;9356;52.202;20.950;2023-10-19T03:40:51;5.00;99.90
18454;DHT22;9356;52.202;20.950;2023-10-19T03:42:07;5.00;99.90
18454;DHT22;9356;52.202;20.950;2023-10-19T03:43:19;5.00;99.90
18454;DHT22;9356;52.202;20.950;2023-10-19T03:44:27;5.00;99.90
18454;DHT22;9356;52.202;20.950;2023-10-19T03:45:47;5.00;99.90
18454;DHT22;9356;52.202;20.950;2023-10-19T03:46:55;5.00;99.90
18454;DHT22;9356;52.202;20.950;2023-10-19T03:48:07;5.00;99.90
18454;DHT22;9356;52.202;20.950;2023-10-19T03:49:15;5.00;99.90
18454;DHT22;9356;52.202;20.950;2023-10-19T03:50:22;5.00;99.90
18454;DHT22;9356;52.202;20.950;2023-10-19T03:51:31;5.00;99.90
18454;DHT22;9356;52.202;20.950;2023-10-19T03:52:45;4.90;99.90
18454;DHT22;9356;52.202;20.950;2023-10-19T03:53:51;4.90;99.90
18454;DHT22;9356;52.202;20.950;2023-10-19T03:55:11;4.90;99.90
18454;DHT22;9356;52.202;20.950;2023-10-19T03:56:27;5.40;99.90
18454;DHT22;9356;52.202;20.950;2023-10-19T03:57:35;4.90;99.90
18454;DHT22;9356;52.202;20.950;2023-10-19T03:58:45;4.90;99.90
18454;DHT22;9356;52.202;20.950;2023-10-19T03:59:55;4.90;99.90
18454;DHT22;9356;52.202;20.950;2023-10-19T04:01:02;4.80;99.90
18454;DHT22;9356;52.202;20.950;2023-10-19T04:02:08;4.20;99.90
18454;DHT22;9356;52.202;20.950;2023-10-19T04:03:15;4.90;99.90
18454;DHT22;9356;52.202;20.950;2023-10-19T04:04:27;4.90;99.90
18454;DHT22;9356;52.202;20.950;2023-10-19T04:05:41;4.80;99.90
18454;DHT22;9356;52.202;20.950;2023-10-19T04:06:47;4.80;99.90
18454;DHT22;9356;52.202;20.950;2023-10-19T04:08:03;4.80;99.90
18454;DHT22;9356;52.202;20.950;2023-10-19T04:09:15;4.70;99.90
18454;DHT22;9356;52.202;20.950;2023-10-19T04:10:19;4.80;99.90
18454;DHT22;9356;52.202;20.950;2023-10-19T04:11:35;4.90;99.90
18454;DHT22;9356;52.202;20.950;2023-10-19T04:12:51;4.90;99.90
18454;DHT22;9356;52.202;20.950;2023-10-19T04:14:03;4.80;99.90
18454;DHT22;9356;52.202;20.950;2023-10-19T04:15:11;4.80;99.90
18454;DHT22;9356;52.202;20.950;2023-10-19T04:16:23;4.80;99.90
18454;DHT22;9356;52.202;20.950;2023-10-19T04:17:30;4.80;99.90
18454;DHT22;9356;52.202;20.950;2023-10-19T04:18:39;4.80;99.90
18454;DHT22;9356;52.202;20.950;2023-10-19T04:19:47;4.70;99.90
18454;DHT22;9356;52.202;20.950;2023-10-19T04:20:57;4.70;99.90
18454;DHT22;9356;52.202;20.950;2023-10-19T04:22:02;4.70;99.90
18454;DHT22;9356;52.202;20.950;2023-10-19T04:23:07;4.80;99.90
18454;DHT22;9356;52.202;20.950;2023-10-19T04:24:22;4.80;99.90
18454;DHT22;9356;52.202;20.950;2023-10-19T04:25:35;4.80;99.90
18454;DHT22;9356;52.202;20.950;2023-10-19T04:26:38;7.80;99.90
18454;DHT22;9356;52.202;20.950;2023-10-19T04:27:47;4.80;99.90
18454;DHT22;9356;52.202;20.950;2023-10-19T04:28:59;4.80;99.90
18454;DHT22;9356;52.202;20.950;2023-10-19T04:30:15;4.80;99.90
18454;DHT22;9356;52.202;20.950;2023-10-19T04:31:27;4.90;99.90
18454;DHT22;9356;52.202;20.950;2023-10-19T04:32:42;4.80;99.90
18454;DHT22;9356;52.202;20.950;2023-10-19T04:33:46;4.80;99.90
18454;DHT22;9356;52.202;20.950;2023-10-19T04:34:50;4.70;99.90
18454;DHT22;9356;52.202;20.950;2023-10-19T04:35:59;4.80;99.90
18454;DHT22;9356;52.202;20.950;2023-10-19T04:37:06;3.20;99.90
18454;DHT22;9356;52.202;20.950;2023-10-19T04:38:15;4.80;99.90
18454;DHT22;9356;52.202;20.950;2023-10-19T04:39:27;5.40;99.90
18454;DHT22;9356;52.202;20.950;2023-10-19T04:40:38;4.60;99.90
18454;DHT22;9356;52.202;20.950;2023-10-19T04:41:46;4.70;99.90
18454;DHT22;9356;52.202;20.950;2023-10-19T04:43:00;5.10;99.90
18454;DHT22;9356;52.202;20.950;2023-10-19T04:44:11;4.60;99.90
18454;DHT22;9356;52.202;20.950;2023-10-19T04:45:18;5.30;99.90
18454;DHT22;9356;52.202;20.950;2023-10-19T04:46:30;4.70;99.90
18454;DHT22;9356;52.202;20.950;2023-10-19T04:47:38;3.50;99.90
18454;DHT22;9356;52.202;20.950;2023-10-19T04:48:50;4.70;99.90
18454;DHT22;9356;52.202;20.950;2023-10-19T04:49:57;4.80;99.90
18454;DHT22;9356;52.202;20.950;2023-10-19T04:51:06;4.80;99.90
18454;DHT22;9356;52.202;20.950;2023-10-19T04:52:09;4.80;99.90
18454;DHT22;9356;52.202;20.950;2023-10-19T04:53:15;4.80;99.90
18454;DHT22;9356;52.202;20.950;2023-10-19T04:54:19;4.80;99.90
18454;DHT22;9356;52.202;20.950;2023-10-19T04:55:34;4.80;99.90
18454;DHT22;9356;52.202;20.950;2023-10-19T04:56:39;4.90;99.90
18454;DHT22;9356;52.202;20.950;2023-10-19T04:57:43;4.90;99.90
18454;DHT22;9356;52.202;20.950;2023-10-19T04:58:46;4.90;99.90
18454;DHT22;9356;52.202;20.950;2023-10-19T04:59:58;4.90;99.90
18454;DHT22;9356;52.202;20.950;2023-10-19T05:01:11;4.90;99.90
18454;DHT22;9356;52.202;20.950;2023-10-19T05:02:15;4.90;99.90
18454;DHT22;9356;52.202;20.950;2023-10-19T05:03:22;4.90;99.90
18454;DHT22;9356;52.202;20.950;2023-10-19T05:04:31;4.90;99.90
18454;DHT22;9356;52.202;20.950;2023-10-19T05:05:39;4.90;99.90
18454;DHT22;9356;52.202;20.950;2023-10-19T05:06:51;4.90;99.90
18454;DHT22;9356;52.202;20.950;2023-10-19T05:07:59;4.90;99.90
18454;DHT22;9356;52.202;20.950;2023-10-19T05:09:09;4.90;99.90
18454;DHT22;9356;52.202;20.950;2023-10-19T05:10:15;4.90;99.90
18454;DHT22;9356;52.202;20.950;2023-10-19T05:11:22;4.90;99.90
18454;DHT22;9356;52.202;20.950;2023-10-19T05:12:31;5.00;99.90
18454;DHT22;9356;52.202;20.950;2023-10-19T05:13:42;4.90;99.90
18454;DHT22;9356;52.202;20.950;2023-10-19T05:14:47;4.90;99.90
18454;DHT22;9356;52.202;20.950;2023-10-19T05:15:58;4.90;99.90
18454;DHT22;9356;52.202;20.950;2023-10-19T05:17:10;5.00;99.90
18454;DHT22;9356;52.202;20.950;2023-10-19T05:18:19;5.00;99.90
18454;DHT22;9356;52.202;20.950;2023-10-19T05:19:26;5.10;99.90
18454;DHT22;9356;52.202;20.950;2023-10-19T05:20:30;5.10;99.90
18454;DHT22;9356;52.202;20.950;2023-10-19T05:21:34;5.00;99.90
18454;DHT22;9356;52.202;20.950;2023-10-19T05:22:43;5.00;99.90
18454;DHT22;9356;52.202;20.950;2023-10-19T05:23:51;5.00;99.90
18454;DHT22;9356;52.202;20.950;2023-10-19T05:24:59;4.90;99.90
18454;DHT22;9356;52.202;20.950;2023-10-19T05:26:07;4.90;99.90
18454;DHT22;9356;52.202;20.950;2023-10-19T05:27:15;5.00;99.90
18454;DHT22;9356;52.202;20.950;2023-10-19T05:28:22;5.00;99.90
18454;DHT22;9356;52.202;20.950;2023-10-19T05:29:27;5.00;99.90
18454;DHT22;9356;52.202;20.950;2023-10-19T05:30:35;5.00;99.90
18454;DHT22;9356;52.202;20.950;2023-10-19T05:31:43;5.00;99.90
18454;DHT22;9356;52.202;20.950;2023-10-19T05:32:51;4.90;99.90
18454;DHT22;9356;52.202;20.950;2023-10-19T05:34:03;4.90;99.90
18454;DHT22;9356;52.202;20.950;2023-10-19T05:35:07;6.00;99.90
18454;DHT22;9356;52.202;20.950;2023-10-19T05:36:27;5.00;99.90
18454;DHT22;9356;52.202;20.950;2023-10-19T05:37:34;5.00;99.90
18454;DHT22;9356;52.202;20.950;2023-10-19T05:38:47;6.10;99.90
18454;DHT22;9356;52.202;20.950;2023-10-19T05:39:54;5.00;99.90
18454;DHT22;9356;52.202;20.950;2023-10-19T05:41:03;5.10;99.90
18454;DHT22;9356;52.202;20.950;2023-10-19T05:42:10;5.10;99.90
18454;DHT22;9356;52.202;20.950;2023-10-19T05:43:19;5.10;99.90
18454;DHT22;9356;52.202;20.950;2023-10-19T05:44:23;5.20;99.90
18454;DHT22;9356;52.202;20.950;2023-10-19T05:45:27;5.20;99.90
18454;DHT22;9356;52.202;20.950;2023-10-19T05:46:34;5.20;99.90
18454;DHT22;9356;52.202;20.950;2023-10-19T05:47:42;5.20;99.90
18454;DHT22;9356;52.202;20.950;2023-10-19T05:48:49;5.20;99.90
18454;DHT22;9356;52.202;20.950;2023-10-19T05:49:59;5.30;99.90
18454;DHT22;9356;52.202;20.950;2023-10-19T05:51:02;5.30;99.90
18454;DHT22;9356;52.202;20.950;2023-10-19T05:52:13;5.40;99.90
18454;DHT22;9356;52.202;20.950;2023-10-19T05:53:26;7.60;99.90
18454;DHT22;9356;52.202;20.950;2023-10-19T05:54:34;5.50;99.90
18454;DHT22;9356;52.202;20.950;2023-10-19T05:55:38;5.50;99.90
18454;DHT22;9356;52.202;20.950;2023-10-19T05:56:43;5.60;99.90
18454;DHT22;9356;52.202;20.950;2023-10-19T05:57:53;5.60;99.90
18454;DHT22;9356;52.202;20.950;2023-10-19T05:58:57;5.60;99.90
18454;DHT22;9356;52.202;20.950;2023-10-19T06:00:07;5.60;99.90
18454;DHT22;9356;52.202;20.950;2023-10-19T06:01:19;5.60;99.90
18454;DHT22;9356;52.202;20.950;2023-10-19T06:02:27;5.60;99.90
18454;DHT22;9356;52.202;20.950;2023-10-19T06:03:34;5.70;99.90
18454;DHT22;9356;52.202;20.950;2023-10-19T06:04:43;5.70;99.90
18454;DHT22;9356;52.202;20.950;2023-10-19T06:05:51;5.70;99.90
18454;DHT22;9356;52.202;20.950;2023-10-19T06:07:06;5.70;99.90
18454;DHT22;9356;52.202;20.950;2023-10-19T06:08:11;5.70;99.90
18454;DHT22;9356;52.202;20.950;2023-10-19T06:09:19;5.70;99.90
18454;DHT22;9356;52.202;20.950;2023-10-19T06:10:34;5.70;99.90
18454;DHT22;9356;52.202;20.950;2023-10-19T06:11:43;5.70;99.90
18454;DHT22;9356;52.202;20.950;2023-10-19T06:12:51;5.80;99.90
18454;DHT22;9356;52.202;20.950;2023-10-19T06:13:59;5.70;99.90
18454;DHT22;9356;52.202;20.950;2023-10-19T06:15:07;5.80;99.90
18454;DHT22;9356;52.202;20.950;2023-10-19T06:16:15;5.80;99.90
18454;DHT22;9356;52.202;20.950;2023-10-19T06:17:45;5.80;99.90
18454;DHT22;9356;52.202;20.950;2023-10-19T06:18:51;4.50;99.90
18454;DHT22;9356;52.202;20.950;2023-10-19T06:20:07;5.80;99.90
18454;DHT22;9356;52.202;20.950;2023-10-19T06:21:17;5.80;99.90
18454;DHT22;9356;52.202;20.950;2023-10-19T06:22:26;5.80;99.90
18454;DHT22;9356;52.202;20.950;2023-10-19T06:23:31;5.90;99.90
18454;DHT22;9356;52.202;20.950;2023-10-19T06:24:41;6.00;99.90
18454;DHT22;9356;52.202;20.950;2023-10-19T06:25:47;6.00;99.90
18454;DHT22;9356;52.202;20.950;2023-10-19T06:26:53;6.10;99.90
18454;DHT22;9356;52.202;20.950;2023-10-19T06:27:58;6.30;99.90
18454;DHT22;9356;52.202;20.950;2023-10-19T06:29:06;6.30;99.90
18454;DHT22;9356;52.202;20.950;2023-10-19T06:30:10;6.50;99.90
18454;DHT22;9356;52.202;20.950;2023-10-19T06:31:19;6.50;99.90
18454;DHT22;9356;52.202;20.950;2023-10-19T06:32:26;6.60;99.90
18454;DHT22;9356;52.202;20.950;2023-10-19T06:33:42;6.70;99.90
18454;DHT22;9356;52.202;20.950;2023-10-19T06:34:47;6.80;99.90
18454;DHT22;9356;52.202;20.950;2023-10-19T06:35:57;6.80;99.90
18454;DHT22;9356;52.202;20.950;2023-10-19T06:37:06;6.80;99.90
18454;DHT22;9356;52.202;20.950;2023-10-19T06:38:15;6.80;99.90
18454;DHT22;9356;52.202;20.950;2023-10-19T06:39:22;6.80;99.90
18454;DHT22;9356;52.202;20.950;2023-10-19T06:40:34;6.90;99.90
18454;DHT22;9356;52.202;20.950;2023-10-19T06:41:43;7.00;99.90
18454;DHT22;9356;52.202;20.950;2023-10-19T06:42:58;6.90;99.90
18454;DHT22;9356;52.202;20.950;2023-10-19T06:44:03;7.00;99.90
18454;DHT22;9356;52.202;20.950;2023-10-19T06:45:12;7.00;99.80
18454;DHT22;9356;52.202;20.950;2023-10-19T06:46:18;7.00;99.70
18454;DHT22;9356;52.202;20.950;2023-10-19T06:47:27;7.10;99.80
18454;DHT22;9356;52.202;20.950;2023-10-19T06:48:38;7.10;99.70
18454;DHT22;9356;52.202;20.950;2023-10-19T06:49:50;7.10;99.60
18454;DHT22;9356;52.202;20.950;2023-10-19T06:51:03;7.10;99.50
18454;DHT22;9356;52.202;20.950;2023-10-19T06:52:13;7.00;99.40
18454;DHT22;9356;52.202;20.950;2023-10-19T06:53:19;7.00;99.60
18454;DHT22;9356;52.202;20.950;2023-10-19T06:54:31;9.40;99.90
18454;DHT22;9356;52.202;20.950;2023-10-19T06:55:38;8.90;99.90
18454;DHT22;9356;52.202;20.950;2023-10-19T06:56:42;8.00;99.90
18454;DHT22;9356;52.202;20.950;2023-10-19T06:57:52;8.00;99.90
18454;DHT22;9356;52.202;20.950;2023-10-19T06:59:05;8.10;99.90
18454;DHT22;9356;52.202;20.950;2023-10-19T07:00:15;8.00;99.90
18454;DHT22;9356;52.202;20.950;2023-10-19T07:01:29;8.00;99.90
18454;DHT22;9356;52.202;20.950;2023-10-19T07:02:42;8.10;99.80
18454;DHT22;9356;52.202;20.950;2023-10-19T07:03:49;8.00;99.10
18454;DHT22;9356;52.202;20.950;2023-10-19T07:04:57;8.00;98.90
18454;DHT22;9356;52.202;20.950;2023-10-19T07:06:05;8.00;98.90
18454;DHT22;9356;52.202;20.950;2023-10-19T07:07:19;8.00;98.40
18454;DHT22;9356;52.202;20.950;2023-10-19T07:08:27;8.00;98.50
18454;DHT22;9356;52.202;20.950;2023-10-19T07:09:35;7.90;98.40
18454;DHT22;9356;52.202;20.950;2023-10-19T07:10:50;7.90;98.50
18454;DHT22;9356;52.202;20.950;2023-10-19T07:11:54;7.90;98.40
18454;DHT22;9356;52.202;20.950;2023-10-19T07:12:59;7.90;98.30
18454;DHT22;9356;52.202;20.950;2023-10-19T07:14:06;7.90;98.30
18454;DHT22;9356;52.202;20.950;2023-10-19T07:15:18;7.80;98.30
18454;DHT22;9356;52.202;20.950;2023-10-19T07:16:23;8.70;98.80
18454;DHT22;9356;52.202;20.950;2023-10-19T07:17:30;7.90;98.30
18454;DHT22;9356;52.202;20.950;2023-10-19T07:18:38;7.90;98.20
18454;DHT22;9356;52.202;20.950;2023-10-19T07:19:46;7.90;98.30
18454;DHT22;9356;52.202;20.950;2023-10-19T07:20:53;7.90;98.40
18454;DHT22;9356;52.202;20.950;2023-10-19T07:22:07;8.00;98.30
18454;DHT22;9356;52.202;20.950;2023-10-19T07:23:13;8.00;98.10
18454;DHT22;9356;52.202;20.950;2023-10-19T07:24:30;8.00;98.20
18454;DHT22;9356;52.202;20.950;2023-10-19T07:25:35;8.10;98.50
18454;DHT22;9356;52.202;20.950;2023-10-19T07:26:50;8.20;98.20
18454;DHT22;9356;52.202;20.950;2023-10-19T07:28:07;9.80;98.50